createdAt,value
2022-09-18T00:01:23.197Z,54.9
2022-09-18T00:21:23.171Z,54.8
2022-09-18T00:41:23.126Z,54.6
2022-09-18T01:01:23.100Z,54.6
2022-09-18T01:21:23.107Z,54.5
2022-09-18T01:41:23.104Z,54.6
2022-09-18T02:01:23.078Z,54.5
2022-09-18T02:21:23.021Z,54.5
2022-09-18T02:41:22.997Z,54.7
2022-09-18T03:01:23.005Z,54.7
2022-09-18T03:21:22.969Z,54.9
2022-09-18T03:41:22.911Z,55.0
2022-09-18T04:01:22.896Z,55.1
2022-09-18T04:21:22.860Z,55.2
2022-09-18T04:41:22.851Z,55.4
2022-09-18T05:01:22.844Z,55.4
2022-09-18T05:21:22.782Z,55.5
2022-09-18T05:41:22.782Z,55.6
2022-09-18T06:01:22.743Z,55.6
2022-09-18T06:21:22.711Z,55.6
2022-09-18T06:41:22.675Z,55.7
2022-09-18T07:01:22.696Z,55.7
2022-09-18T07:21:22.669Z,55.8
2022-09-18T07:41:22.636Z,55.6
2022-09-18T08:01:22.609Z,55.4
2022-09-18T08:21:22.582Z,55.3
2022-09-18T08:41:22.547Z,55.1
2022-09-18T09:01:22.581Z,54.9
2022-09-18T09:21:22.637Z,55.0
2022-09-18T09:41:22.453Z,52.0
2022-09-18T10:01:22.455Z,50.3
2022-09-18T10:21:22.419Z,49.5
2022-09-18T10:41:22.380Z,49.3
2022-09-18T11:01:22.370Z,49.9
2022-09-18T11:21:22.355Z,49.6
2022-09-18T11:41:22.342Z,49.4
2022-09-18T12:01:22.302Z,49.1
2022-09-18T12:21:20.906Z,48.4
2022-09-18T12:41:21.529Z,48.2
2022-09-18T13:01:21.494Z,49.3
2022-09-18T13:21:22.318Z,50.2
2022-09-18T13:41:22.187Z,50.7
2022-09-18T14:01:22.091Z,47.6
2022-09-18T14:21:22.067Z,49.8
2022-09-18T14:41:22.050Z,50.4
2022-09-18T15:01:22.046Z,49.7
2022-09-18T15:21:22.034Z,46.6
2022-09-18T15:41:22.045Z,46.0
2022-09-18T16:01:22.003Z,45.4
2022-09-18T16:21:21.945Z,47.9
2022-09-18T16:41:21.969Z,48.9
2022-09-18T17:01:21.891Z,49.7
2022-09-18T17:21:21.891Z,50.2
2022-09-18T17:41:21.855Z,50.5
2022-09-18T18:01:21.850Z,50.9
2022-09-18T18:21:21.793Z,51.2
2022-09-18T18:41:21.783Z,51.6
2022-09-18T19:01:21.734Z,51.9
2022-09-18T19:21:21.758Z,52.2
2022-09-18T19:41:21.707Z,52.3
2022-09-18T20:01:21.666Z,52.5
2022-09-18T20:21:21.706Z,52.6
2022-09-18T20:41:21.662Z,52.7
2022-09-18T21:01:21.588Z,52.9
2022-09-18T21:21:21.579Z,53.0
2022-09-18T21:41:21.545Z,53.1
2022-09-18T22:01:21.612Z,53.1
2022-09-18T22:21:21.511Z,53.2
2022-09-18T22:41:21.517Z,53.2
2022-09-18T23:01:21.482Z,53.2
2022-09-18T23:21:21.441Z,53.2
2022-09-18T23:41:21.439Z,53.2
